Time;durP1;ratioP1;P1;durP2;ratioP2;P2;SDS_P1;SDS_P2;PMS_P1;PMS_P2;Temp;Humidity;BMP_temperature;BMP_pressure;BME280_temperature;BME280_humidity;BME280_pressure;Samples;Min_cycle;Max_cycle;Signal;HPM_P1;HPM_P2
2022/08/02 00:01:46;;;;;;;2.40;1.80;;;;;;;18.42;77.31;99717.66;5007334;28;20227;-76
2022/08/02 00:04:11;;;;;;;2.30;2.10;;;;;;;18.42;77.50;99715.81;5005573;28;20216;-76
2022/08/02 00:06:38;;;;;;;2.77;2.57;;;;;;;18.47;77.14;99718.03;5007086;28;20229;-76
2022/08/02 00:12:05;;;;;;;1.97;1.73;;;;;;;18.64;76.69;99717.28;4982808;28;20509;-78
2022/08/02 00:14:31;;;;;;;1.80;1.53;;;;;;;18.69;76.49;99728.31;4984934;28;20496;-78
2022/08/02 00:16:56;;;;;;;2.20;1.97;;;;;;;18.74;76.38;99728.75;4989003;28;20206;-78
2022/08/02 00:19:22;;;;;;;2.27;1.73;;;;;;;18.78;76.54;99735.44;4989380;28;20716;-78
2022/08/02 00:21:47;;;;;;;2.17;1.50;;;;;;;18.81;76.41;99725.50;4989527;28;20665;-78
2022/08/02 00:24:13;;;;;;;1.93;1.73;;;;;;;18.77;76.25;99725.78;4988660;28;20210;-78
2022/08/02 00:26:38;;;;;;;2.93;1.50;;;;;;;18.73;76.57;99728.84;4989091;28;20668;-78
2022/08/02 00:29:04;;;;;;;5.70;1.90;;;;;;;18.67;76.80;99724.13;4988850;28;20289;-78
2022/08/02 00:31:30;;;;;;;1.90;1.63;;;;;;;18.63;76.93;99730.72;4988255;28;20290;-78
2022/08/02 00:33:55;;;;;;;4.63;2.40;;;;;;;18.63;77.21;99728.03;4988191;28;20541;-79
2022/08/02 00:36:21;;;;;;;3.30;1.70;;;;;;;18.60;76.97;99721.19;4989256;28;20218;-78
2022/08/02 00:38:47;;;;;;;2.90;1.60;;;;;;;18.55;77.20;99718.13;4989669;28;20240;-78
2022/08/02 00:41:20;;;;;;;5.33;2.10;;;;;;;18.51;77.22;99714.94;4989190;28;20210;-78
2022/08/02 00:43:47;;;;;;;1.73;1.50;;;;;;;18.50;77.37;99709.78;4988170;28;20474;-78
2022/08/02 00:46:14;;;;;;;1.80;1.60;;;;;;;18.52;76.84;99705.13;4988551;28;21209;-79
2022/08/02 00:48:39;;;;;;;2.03;1.87;;;;;;;18.50;77.15;99709.78;4987554;28;20532;-79
2022/08/02 00:51:05;;;;;;;1.83;1.73;;;;;;;18.50;77.18;99712.44;4988565;28;20498;-78
2022/08/02 00:53:31;;;;;;;1.87;1.73;;;;;;;18.46;77.05;99711.88;4989050;28;20267;-78
2022/08/02 00:55:56;;;;;;;2.50;1.90;;;;;;;18.41;77.17;99711.47;4989525;28;20197;-78
2022/08/02 00:58:22;;;;;;;1.80;1.50;;;;;;;18.38;77.47;99713.59;4987837;28;20539;-78
2022/08/02 01:00:47;;;;;;;2.40;1.85;;;;;;;18.37;77.93;99701.28;4988479;28;20493;-78
2022/08/02 01:03:12;;;;;;;2.63;2.10;;;;;;;18.33;78.25;99706.03;4988753;28;20480;-78
2022/08/02 01:05:38;;;;;;;2.70;2.07;;;;;;;18.28;78.64;99703.84;4988365;28;20238;-78
2022/08/02 01:08:03;;;;;;;3.00;2.00;;;;;;;18.25;78.52;99706.75;4987719;28;20231;-78
2022/08/02 01:10:29;;;;;;;4.87;2.17;;;;;;;18.26;78.51;99697.81;4988876;28;20278;-78
2022/08/02 01:12:54;;;;;;;4.10;1.90;;;;;;;18.28;78.27;99701.19;4989620;28;20215;-78
2022/08/02 01:15:20;;;;;;;4.43;1.70;;;;;;;18.30;78.30;99704.50;4987141;28;20205;-78
2022/08/02 01:18:01;;;;;;;2.93;2.07;;;;;;;18.30;77.99;99696.53;4987545;28;20284;-78
2022/08/02 01:20:55;;;;;;;3.70;2.03;;;;;;;18.30;78.26;99691.22;4988386;28;20505;-78
2022/08/02 01:23:33;;;;;;;2.63;1.37;;;;;;;18.30;78.00;99698.34;4988410;28;20862;-78
2022/08/02 01:26:16;;;;;;;1.97;1.60;;;;;;;18.30;78.22;99701.00;4987873;28;20468;-78
2022/08/02 01:28:50;;;;;;;4.17;2.03;;;;;;;18.25;78.07;99701.44;4988147;28;20469;-78
2022/08/02 01:31:24;;;;;;;2.90;2.15;;;;;;;18.25;78.76;99705.91;4987547;28;20554;-78
2022/08/02 01:33:58;;;;;;;2.03;1.73;;;;;;;18.25;78.73;99706.75;4987001;28;20203;-78
2022/08/02 01:36:26;;;;;;;2.30;2.10;;;;;;;18.25;78.81;99700.59;4986999;28;20480;-78
2022/08/02 01:38:54;;;;;;;2.07;1.87;;;;;;;18.23;78.84;99695.44;4985580;28;20521;-78
2022/08/02 01:41:24;;;;;;;2.60;2.40;;;;;;;18.23;78.53;99700.75;4988293;28;20897;-78
2022/08/02 01:43:53;;;;;;;2.87;1.70;;;;;;;18.22;78.55;99696.41;4986329;28;20472;-78
2022/08/02 01:46:20;;;;;;;2.87;1.93;;;;;;;18.22;78.48;99693.75;4986450;28;21403;-78
2022/08/02 01:48:47;;;;;;;2.23;1.93;;;;;;;18.22;78.59;99693.75;4986631;28;20542;-78
2022/08/02 01:51:16;;;;;;;4.53;1.90;;;;;;;18.22;78.54;99693.75;4988092;28;20461;-78
2022/08/02 01:53:43;;;;;;;1.83;1.73;;;;;;;18.21;78.77;99692.09;4987302;28;20560;-78
2022/08/02 01:56:11;;;;;;;3.17;1.70;;;;;;;18.25;78.39;99693.47;4988505;28;20721;-78
2022/08/02 01:58:39;;;;;;;1.90;1.70;;;;;;;18.26;78.34;99692.50;4986925;28;20791;-78
2022/08/02 02:01:06;;;;;;;3.87;2.00;;;;;;;18.24;78.69;99691.78;4985110;28;20481;-78
2022/08/02 02:03:34;;;;;;;3.43;2.00;;;;;;;18.25;79.11;99695.28;4984268;28;20480;-79
2022/08/02 02:06:02;;;;;;;2.13;1.63;;;;;;;18.21;78.96;99680.63;4988955;28;20487;-80
2022/08/02 02:08:36;;;;;;;1.70;1.60;;;;;;;18.17;79.09;99689.84;4989400;28;20819;-80
2022/08/02 02:11:02;;;;;;;1.50;1.40;;;;;;;18.11;79.08;99689.44;4989625;28;20496;-80
2022/08/02 02:13:30;;;;;;;1.50;1.37;;;;;;;18.06;79.00;99685.53;4990174;28;20875;-80
2022/08/02 02:15:59;;;;;;;1.50;1.30;;;;;;;18.00;78.95;99683.47;4991220;28;20476;-80
2022/08/02 02:18:26;;;;;;;2.47;1.90;;;;;;;17.95;78.74;99681.22;4990370;28;20459;-80
2022/08/02 02:20:53;;;;;;;1.97;1.77;;;;;;;17.90;78.97;99688.78;4992671;28;20466;-80
2022/08/02 02:23:19;;;;;;;2.10;1.90;;;;;;;17.82;79.36;99686.00;4993062;28;20450;-80
2022/08/02 02:25:46;;;;;;;3.93;1.93;;;;;;;17.80;79.60;99683.50;4989041;28;20498;-79
2022/08/02 02:28:15;;;;;;;2.60;2.30;;;;;;;17.81;79.43;99687.00;4990782;28;20546;-80
2022/08/02 02:30:46;;;;;;;2.97;2.13;;;;;;;17.85;79.45;99680.44;4996156;28;20497;-80
2022/08/02 02:33:12;;;;;;;3.15;1.80;;;;;;;17.86;79.82;99674.97;4988506;28;20500;-80
2022/08/02 02:35:40;;;;;;;2.30;2.10;;;;;;;17.85;79.83;99675.13;4981573;28;20260;-80
2022/08/02 02:38:10;;;;;;;2.00;1.80;;;;;;;17.81;79.95;99669.22;4991782;28;20452;-80
2022/08/02 02:40:38;;;;;;;2.47;1.80;;;;;;;17.67;80.01;99669.66;4992364;28;20586;-80
2022/08/02 02:43:05;;;;;;;2.30;2.07;;;;;;;17.61;80.42;99672.88;4993004;28;20466;-80
2022/08/02 02:45:31;;;;;;;2.13;1.93;;;;;;;17.56;80.54;99665.31;4992479;28;20450;-80
2022/08/02 02:48:00;;;;;;;2.47;1.90;;;;;;;17.54;80.33;99669.94;4994890;28;20495;-80
2022/08/02 02:50:27;;;;;;;6.90;1.90;;;;;;;17.55;80.29;99676.06;4996224;28;21180;-80
2022/08/02 02:52:53;;;;;;;4.10;2.93;;;;;;;17.53;80.28;99673.59;4996060;28;20791;-80
2022/08/02 02:55:21;;;;;;;3.23;2.30;;;;;;;17.50;80.31;99675.66;4997577;28;20466;-80
2022/08/02 02:57:47;;;;;;;3.13;2.30;;;;;;;17.48;80.38;99681.13;4994916;28;20220;-80
2022/08/02 03:00:13;;;;;;;4.63;2.00;;;;;;;17.50;80.29;99686.28;4997438;28;20478;-80
2022/08/02 03:02:41;;;;;;;3.30;1.60;;;;;;;17.50;80.18;99688.94;4997445;28;20810;-80
2022/08/02 03:05:08;;;;;;;2.23;1.93;;;;;;;17.51;80.25;99693.28;4996494;28;20459;-80
2022/08/02 03:07:39;;;;;;;1.97;1.73;;;;;;;17.51;80.05;99691.47;4993574;28;20890;-80
2022/08/02 03:10:05;;;;;;;3.20;2.00;;;;;;;17.49;79.83;99693.41;4991316;28;21280;-80
2022/08/02 03:12:32;;;;;;;4.60;2.13;;;;;;;17.46;79.95;99693.69;5000423;28;20459;-81
2022/08/02 03:15:03;;;;;;;2.57;1.53;;;;;;;17.40;79.77;99681.81;5005743;28;20541;-82
2022/08/02 03:17:43;;;;;;;1.83;1.70;;;;;;;17.39;79.99;99684.59;5005021;28;20500;-82
2022/08/02 03:20:16;;;;;;;2.23;2.03;;;;;;;17.39;79.82;99685.47;5003753;28;20501;-82
2022/08/02 03:22:44;;;;;;;1.93;1.57;;;;;;;17.37;79.69;99684.75;5005997;28;20517;-81
2022/08/02 03:25:11;;;;;;;3.03;1.53;;;;;;;17.39;79.71;99680.16;5006909;28;20471;-81
2022/08/02 03:27:37;;;;;;;1.90;1.60;;;;;;;17.43;79.51;99676.22;5004909;28;20901;-81
2022/08/02 03:30:05;;;;;;;1.67;1.40;;;;;;;17.46;79.30;99683.06;4995493;28;21082;-81
2022/08/02 03:32:35;;;;;;;1.50;1.33;;;;;;;17.47;79.27;99680.28;4996769;28;20230;-81
2022/08/02 03:35:02;;;;;;;2.23;2.03;;;;;;;17.47;79.47;99672.31;4997260;28;20455;-82
2022/08/02 03:37:30;;;;;;;2.50;1.90;;;;;;;17.47;79.55;99679.44;5001707;28;20445;-81
2022/08/02 03:39:57;;;;;;;4.13;2.03;;;;;;;17.47;79.36;99679.44;5016026;28;20555;-82
2022/08/02 03:42:24;;;;;;;4.10;2.10;;;;;;;17.48;79.58;99678.47;4999897;28;20252;-82
2022/08/02 03:44:50;;;;;;;3.40;2.53;;;;;;;17.48;79.58;99692.59;5001337;28;20474;-82
2022/08/02 03:47:17;;;;;;;2.23;1.90;;;;;;;17.47;79.56;99682.09;4999131;28;20930;-81
2022/08/02 03:49:43;;;;;;;4.23;2.00;;;;;;;17.45;79.41;99682.25;5001824;28;20475;-82
2022/08/02 03:52:10;;;;;;;1.90;1.70;;;;;;;17.44;79.50;99680.56;5004406;28;20443;-82
2022/08/02 03:54:36;;;;;;;2.53;1.70;;;;;;;17.42;79.39;99684.34;5004810;28;21077;-82
2022/08/02 03:57:04;;;;;;;1.40;1.30;;;;;;;17.36;79.17;99683.09;5006167;28;20473;-82
2022/08/02 03:59:39;;;;;;;1.50;1.37;;;;;;;17.28;79.27;99674.94;5003226;28;20507;-82
2022/08/02 04:02:05;;;;;;;1.93;1.20;;;;;;;17.22;79.32;99670.22;5003267;28;20473;-83
2022/08/02 04:04:30;;;;;;;3.07;1.10;;;;;;;17.18;79.39;99664.34;5005920;28;20476;-82
2022/08/02 04:06:56;;;;;;;1.40;1.27;;;;;;;17.18;79.24;99667.00;5004093;28;20243;-83
2022/08/02 04:09:21;;;;;;;4.20;2.27;;;;;;;17.18;79.33;99661.69;5001864;28;20603;-82
2022/08/02 04:11:46;;;;;;;2.30;2.10;;;;;;;17.18;79.29;99660.84;5002743;28;20244;-82
2022/08/02 04:14:12;;;;;;;7.13;2.20;;;;;;;17.20;79.62;99665.06;5002705;28;20291;-82
2022/08/02 04:16:50;;;;;;;2.80;2.00;;;;;;;17.22;79.50;99663.06;5001658;28;20554;-82
2022/08/02 04:19:46;;;;;;;2.53;2.03;;;;;;;17.28;79.44;99669.63;5001029;28;20319;-82
2022/08/02 04:22:22;;;;;;;1.63;1.50;;;;;;;17.32;79.42;99673.72;5006850;28;20471;-82
2022/08/02 04:24:54;;;;;;;2.30;1.90;;;;;;;17.36;79.17;99672.47;5006194;28;20451;-82
2022/08/02 04:27:21;;;;;;;2.30;1.83;;;;;;;17.44;78.86;99679.72;5005976;28;20510;-81
2022/08/02 04:29:48;;;;;;;4.17;2.20;;;;;;;17.46;78.67;99678.59;5003835;28;21012;-82
2022/08/02 04:32:15;;;;;;;1.73;1.60;;;;;;;17.51;78.59;99686.16;5005234;28;20522;-82
2022/08/02 04:34:41;;;;;;;2.53;1.37;;;;;;;17.58;78.49;99681.09;5002164;28;20827;-82
2022/08/02 04:37:06;;;;;;;3.37;1.90;;;;;;;17.61;78.23;99692.31;4997079;28;20479;-82
2022/08/02 04:39:32;;;;;;;1.73;1.20;;;;;;;17.66;77.83;99687.41;4991034;28;20480;-82
2022/08/02 04:41:57;;;;;;;1.10;0.90;;;;;;;17.66;77.66;99691.84;4993747;28;20621;-82
2022/08/02 04:44:23;;;;;;;1.27;1.07;;;;;;;17.62;77.52;99690.47;4990342;28;20223;-82
2022/08/02 04:46:49;;;;;;;1.40;1.30;;;;;;;17.56;77.62;99691.06;4990108;28;20680;-82
2022/08/02 04:49:15;;;;;;;1.30;1.20;;;;;;;17.56;77.58;99696.38;4989613;28;20243;-82
2022/08/02 04:51:42;;;;;;;1.40;1.00;;;;;;;17.59;77.28;99696.09;4993125;28;20546;-81
2022/08/02 04:54:09;;;;;;;2.00;1.40;;;;;;;17.66;76.83;99692.72;5004740;28;20750;-82
2022/08/02 04:56:37;;;;;;;2.90;1.60;;;;;;;17.82;76.63;99691.31;5006740;28;20452;-82
2022/08/02 04:59:03;;;;;;;2.80;1.97;;;;;;;17.97;76.15;99691.72;5001254;28;20475;-82
2022/08/02 05:01:29;;;;;;;2.37;1.83;;;;;;;18.09;75.81;99693.22;5001409;28;20439;-82
2022/08/02 05:03:54;;;;;;;2.27;1.80;;;;;;;18.70;74.01;99679.44;5001362;28;20200;-82
2022/08/02 05:06:20;;;;;;;2.13;1.93;;;;;;;19.60;70.88;99682.19;5002159;28;20216;-81
2022/08/02 05:08:48;;;;;;;3.40;2.20;;;;;;;20.11;69.11;99683.25;5002985;28;20230;-82
2022/08/02 05:11:14;;;;;;;2.30;2.10;;;;;;;20.34;67.90;99688.91;4997641;28;20238;-82
2022/08/02 05:13:40;;;;;;;3.20;1.80;;;;;;;20.33;68.03;99693.41;4999526;28;20480;-82
2022/08/02 05:16:06;;;;;;;1.93;1.60;;;;;;;20.38;68.05;99694.75;4999336;28;20201;-82
2022/08/02 05:18:31;;;;;;;3.37;1.50;;;;;;;20.30;68.22;99698.22;5001786;28;20549;-82
2022/08/02 05:20:57;;;;;;;3.20;1.73;;;;;;;20.22;68.28;99706.16;4999771;28;20307;-82
2022/08/02 05:23:23;;;;;;;3.63;2.10;;;;;;;20.23;68.34;99697.19;5000227;28;20244;-82
2022/08/02 05:25:48;;;;;;;3.40;2.20;;;;;;;20.50;67.44;99694.34;5001251;28;20488;-82
2022/08/02 05:28:14;;;;;;;3.30;2.03;;;;;;;20.51;67.42;99692.50;4986904;28;20262;-79
2022/08/02 05:30:39;;;;;;;3.80;2.47;;;;;;;20.39;68.04;99686.59;4984079;28;20682;-79
2022/08/02 05:33:05;;;;;;;4.30;2.40;;;;;;;20.33;68.16;99688.09;4985703;28;20512;-79
2022/08/02 05:35:32;;;;;;;2.90;2.10;;;;;;;20.31;68.38;99687.41;4988893;28;20469;-79
2022/08/02 05:37:57;;;;;;;6.30;2.10;;;;;;;20.39;68.17;99685.75;4986874;28;20452;-82
2022/08/02 05:40:23;;;;;;;2.83;2.37;;;;;;;20.41;68.10;99683.78;4986494;28;20495;-83
2022/08/02 05:42:48;;;;;;;3.40;2.40;;;;;;;20.50;67.77;99682.81;4987521;28;20700;-82
2022/08/02 05:45:14;;;;;;;5.50;2.17;;;;;;;20.44;67.76;99678.09;4992787;28;20220;-81
2022/08/02 05:47:40;;;;;;;2.70;2.20;;;;;;;20.44;67.97;99680.78;4990888;28;20497;-81
2022/08/02 05:50:07;;;;;;;2.43;2.13;;;;;;;20.44;67.73;99678.09;4990402;28;20223;-82
2022/08/02 05:53:17;;;;;;;2.17;2.00;;;;;;;20.42;67.73;99680.94;4993949;28;20793;-82
2022/08/02 05:56:00;;;;;;;3.00;2.03;;;;;;;20.49;67.59;99681.13;4982679;28;21028;-81
2022/08/02 05:58:29;;;;;;;2.57;2.37;;;;;;;20.71;67.07;99682.44;4995603;28;20585;-83
2022/08/02 06:00:55;;;;;;;3.57;1.70;;;;;;;21.09;65.72;99677.53;4995444;28;20466;-82
2022/08/02 06:03:24;;;;;;;2.80;2.03;;;;;;;21.61;64.11;99677.31;4990551;28;20465;-82
2022/08/02 06:05:57;;;;;;;4.70;3.00;;;;;;;22.38;61.62;99675.03;4988412;28;20221;-82
2022/08/02 06:08:26;;;;;;;4.37;2.37;;;;;;;23.08;59.49;99678.75;4987120;28;20486;-82
2022/08/02 06:10:55;;;;;;;2.40;2.20;;;;;;;23.69;57.61;99673.47;5016329;23;20809;-75
2022/08/02 06:13:21;;;;;;;6.43;2.70;;;;;;;23.60;57.76;99680.72;5011341;28;20767;-75
2022/08/02 06:15:50;;;;;;;3.40;2.03;;;;;;;23.21;59.06;99684.38;5010053;28;20501;-74
2022/08/02 06:18:16;;;;;;;3.03;2.40;;;;;;;22.78;60.28;99680.41;5005569;28;20536;-75
2022/08/02 06:20:43;;;;;;;1.97;1.80;;;;;;;22.42;61.65;99678.22;5002955;28;20547;-75
2022/08/02 06:23:08;;;;;;;2.90;1.80;;;;;;;22.21;62.13;99682.28;5003139;28;20211;-75
2022/08/02 06:25:35;;;;;;;2.47;1.97;;;;;;;22.20;62.60;99683.28;5004252;28;20471;-75
2022/08/02 06:28:04;;;;;;;5.33;2.03;;;;;;;22.71;60.75;99680.25;5000142;28;20362;-75
2022/08/02 06:30:31;;;;;;;3.17;2.30;;;;;;;23.52;58.37;99672.75;4998788;28;21374;-75
2022/08/02 06:32:56;;;;;;;2.70;1.80;;;;;;;24.48;55.39;99679.25;4998989;28;20486;-75
2022/08/02 06:35:27;;;;;;;4.00;2.00;;;;;;;25.68;51.88;99677.91;4995794;28;20212;-75
2022/08/02 06:37:59;;;;;;;2.53;2.33;;;;;;;27.19;47.75;99668.25;4998030;28;20303;-75
2022/08/02 06:40:47;;;;;;;2.53;2.33;;;;;;;28.48;44.75;99671.59;4998306;28;20483;-75
2022/08/02 06:43:31;;;;;;;3.00;2.17;;;;;;;29.78;41.61;99672.13;4998462;28;20457;-75
2022/08/02 06:45:56;;;;;;;3.13;2.20;;;;;;;30.00;40.93;99664.41;5011666;28;20457;-75
2022/08/02 06:48:22;;;;;;;3.60;2.37;;;;;;;30.74;39.31;99657.16;5000086;28;20831;-75
2022/08/02 06:50:47;;;;;;;2.20;2.00;;;;;;;31.32;37.64;99655.75;4996097;28;20248;-75
2022/08/02 06:53:13;;;;;;;2.10;1.90;;;;;;;31.61;36.77;99653.25;4998100;28;20752;-76
2022/08/02 06:55:38;;;;;;;3.23;1.97;;;;;;;31.87;36.18;99655.53;4996263;28;20259;-76
2022/08/02 06:58:04;;;;;;;1.73;1.53;;;;;;;32.23;35.96;99655.53;4997115;28;20223;-75
2022/08/02 07:00:30;;;;;;;3.83;2.43;;;;;;;32.62;34.91;99659.38;4998315;28;20228;-76
2022/08/02 07:02:56;;;;;;;2.88;1.98;;;;;;;32.84;34.34;99651.38;4995646;28;20495;-76
2022/08/02 07:05:22;;;;;;;2.03;1.83;;;;;;;32.61;35.08;99658.53;4988666;28;20204;-76
2022/08/02 07:07:47;;;;;;;3.27;2.50;;;;;;;32.94;34.18;99662.44;4994254;28;20483;-75
2022/08/02 07:10:13;;;;;;;2.87;1.97;;;;;;;33.19;33.64;99667.59;4987644;28;20255;-75
2022/08/02 07:12:39;;;;;;;4.70;2.13;;;;;;;33.32;33.53;99668.34;4989368;28;20327;-75
2022/08/02 07:15:07;;;;;;;3.33;2.43;;;;;;;33.10;33.72;99663.59;4991806;28;20513;-75
2022/08/02 07:17:33;;;;;;;2.30;1.93;;;;;;;33.32;33.72;99662.88;4988932;28;20467;-75
2022/08/02 07:19:59;;;;;;;2.77;2.10;;;;;;;33.74;33.05;99657.91;4991584;28;20478;-76
2022/08/02 07:22:25;;;;;;;2.50;1.93;;;;;;;34.13;32.67;99652.50;4989019;28;20479;-76
2022/08/02 07:24:51;;;;;;;2.60;2.20;;;;;;;34.33;32.45;99662.88;4994735;28;20227;-76
2022/08/02 07:27:17;;;;;;;2.63;1.97;;;;;;;34.71;32.03;99655.75;4998797;28;20487;-76
2022/08/02 07:29:43;;;;;;;3.80;2.70;;;;;;;34.85;31.60;99656.97;4996058;28;20786;-76
2022/08/02 07:32:08;;;;;;;2.87;2.30;;;;;;;34.86;31.31;99666.81;4994966;28;20467;-76
2022/08/02 07:34:34;;;;;;;3.67;2.00;;;;;;;34.96;31.03;99666.09;5002304;28;20212;-76
2022/08/02 07:36:59;;;;;;;2.20;2.00;;;;;;;34.98;31.29;99663.94;5004870;28;20224;-76
2022/08/02 07:39:24;;;;;;;2.10;1.90;;;;;;;35.43;30.51;99666.34;5000937;28;20224;-76
2022/08/02 07:41:51;;;;;;;2.50;2.30;;;;;;;35.25;30.78;99669.44;4999057;28;20249;-75
2022/08/02 07:44:20;;;;;;;2.30;2.10;;;;;;;35.10;31.01;99661.09;5002281;28;20563;-76
2022/08/02 07:46:46;;;;;;;2.70;2.20;;;;;;;35.01;30.65;99663.44;5001105;28;20501;-76
2022/08/02 07:49:17;;;;;;;2.17;1.83;;;;;;;35.03;30.40;99667.56;5002090;28;20475;-76
2022/08/02 07:51:45;;;;;;;1.53;1.43;;;;;;;34.92;30.35;99665.81;5000841;28;20637;-76
2022/08/02 07:54:10;;;;;;;2.10;1.90;;;;;;;34.93;30.77;99672.91;4999117;28;20455;-76
2022/08/02 07:56:36;;;;;;;2.17;1.83;;;;;;;34.98;30.57;99663.94;4998934;28;20986;-76
2022/08/02 07:59:02;;;;;;;2.30;1.70;;;;;;;34.84;30.61;99669.00;5003115;28;20228;-75
2022/08/02 08:01:28;;;;;;;2.93;1.83;;;;;;;34.89;30.52;99665.47;4997956;28;20204;-76
2022/08/02 08:03:53;;;;;;;2.00;1.80;;;;;;;35.51;29.76;99662.28;4999759;28;20911;-76
2022/08/02 08:06:18;;;;;;;2.50;2.30;;;;;;;35.72;29.24;99655.09;4999561;28;20219;-76
2022/08/02 08:08:44;;;;;;;2.10;1.90;;;;;;;35.93;29.36;99663.44;4999318;28;20196;-76
2022/08/02 08:11:09;;;;;;;6.40;2.73;;;;;;;36.13;29.14;99657.31;4995644;28;20354;-76
2022/08/02 08:13:35;;;;;;;3.30;1.90;;;;;;;36.06;28.46;99663.03;4997057;28;20298;-76
2022/08/02 08:16:05;;;;;;;2.50;1.67;;;;;;;35.60;29.50;99659.94;4997914;28;20261;-76
2022/08/02 08:18:30;;;;;;;3.73;2.30;;;;;;;35.92;29.11;99653.59;5001323;28;20350;-76
2022/08/02 08:20:56;;;;;;;2.70;2.10;;;;;;;36.10;28.98;99644.97;4998057;28;20555;-76
2022/08/02 08:23:22;;;;;;;3.17;2.03;;;;;;;36.38;28.36;99638.31;4998798;28;20208;-76
2022/08/02 08:25:48;;;;;;;8.40;2.47;;;;;;;35.31;29.78;99634.81;5000068;28;20467;-76
2022/08/02 08:28:13;;;;;;;5.00;1.80;;;;;;;34.08;31.79;99636.06;5002785;28;20267;-75
2022/08/02 08:30:40;;;;;;;3.10;1.80;;;;;;;32.70;33.77;99629.06;4998406;28;20912;-76
2022/08/02 08:33:05;;;;;;;3.47;2.13;;;;;;;31.36;35.81;99635.25;4997729;28;20215;-75
2022/08/02 08:35:30;;;;;;;2.07;1.87;;;;;;;30.21;38.03;99636.06;4999133;28;20467;-76
2022/08/02 08:37:56;;;;;;;3.30;2.10;;;;;;;29.49;39.90;99644.66;4999078;28;20197;-76
2022/08/02 08:40:24;;;;;;;2.20;1.80;;;;;;;29.40;40.28;99645.13;5000435;28;20709;-76
2022/08/02 08:42:49;;;;;;;3.43;1.80;;;;;;;29.34;40.30;99646.84;4996964;28;21284;-76
2022/08/02 08:45:16;;;;;;;1.87;1.50;;;;;;;29.66;39.72;99641.41;4997212;28;20475;-76
2022/08/02 08:47:42;;;;;;;1.93;1.70;;;;;;;30.05;38.82;99640.19;5002218;28;20270;-76
2022/08/02 08:50:11;;;;;;;2.50;2.30;;;;;;;30.07;38.61;99645.41;4998095;28;20752;-76
2022/08/02 08:52:46;;;;;;;2.60;2.10;;;;;;;29.67;39.69;99646.59;4998784;28;20455;-76
2022/08/02 08:55:13;;;;;;;2.40;2.10;;;;;;;29.59;40.05;99652.25;4996810;28;20794;-76
2022/08/02 08:57:42;;;;;;;2.87;2.00;;;;;;;29.67;40.07;99649.31;5002143;28;20856;-77
2022/08/02 09:00:12;;;;;;;2.83;1.80;;;;;;;29.51;40.11;99656.06;4998511;28;20479;-76
2022/08/02 09:02:40;;;;;;;2.50;1.90;;;;;;;29.28;40.56;99651.25;5000977;28;20660;-76
2022/08/02 09:05:09;;;;;;;3.60;1.73;;;;;;;28.93;41.26;99658.09;5000856;28;20514;-76
2022/08/02 09:07:34;;;;;;;2.00;1.80;;;;;;;28.89;41.50;99650.41;4998593;28;20597;-76
2022/08/02 09:10:00;;;;;;;5.07;2.13;;;;;;;29.04;41.25;99642.03;5000915;28;20528;-76
2022/08/02 09:12:25;;;;;;;1.80;1.70;;;;;;;29.21;40.72;99649.63;5011591;28;20207;-76
2022/08/02 09:14:51;;;;;;;3.03;2.00;;;;;;;28.90;41.22;99643.13;4997729;28;20204;-76
2022/08/02 09:17:17;;;;;;;4.80;2.10;;;;;;;28.99;41.03;99644.53;4999764;28;20603;-76
2022/08/02 09:19:42;;;;;;;2.70;1.60;;;;;;;28.95;41.54;99640.63;4997855;28;20255;-76
2022/08/02 09:22:11;;;;;;;2.30;2.00;;;;;;;28.99;41.74;99641.81;4999472;28;20558;-76
2022/08/02 09:24:48;;;;;;;2.20;2.00;;;;;;;28.99;41.81;99641.00;4999355;28;20274;-76
2022/08/02 09:27:16;;;;;;;3.00;1.80;;;;;;;28.92;42.16;99643.72;5000458;28;20516;-77
2022/08/02 09:29:53;;;;;;;2.50;1.70;;;;;;;28.78;42.56;99642.97;4998949;28;20475;-76
2022/08/02 09:32:18;;;;;;;3.97;2.50;;;;;;;28.74;42.45;99649.88;4999482;28;20497;-76
2022/08/02 09:34:53;;;;;;;3.63;1.80;;;;;;;28.65;42.39;99649.28;5000860;28;20471;-76
2022/08/02 09:37:25;;;;;;;5.37;2.00;;;;;;;28.79;42.06;99646.53;4999474;28;20227;-76
2022/08/02 09:39:51;;;;;;;3.10;1.87;;;;;;;29.06;41.76;99641.84;4997653;28;20479;-76
2022/08/02 09:42:16;;;;;;;2.10;1.80;;;;;;;29.32;40.88;99638.94;5000351;28;20557;-76
2022/08/02 09:44:59;;;;;;;5.07;2.20;;;;;;;29.49;39.96;99627.59;4996608;28;20220;-76
2022/08/02 09:47:27;;;;;;;3.77;1.90;;;;;;;29.65;39.95;99635.19;4997720;28;20220;-76
2022/08/02 09:49:54;;;;;;;2.17;1.97;;;;;;;29.76;39.62;99636.34;4996880;28;20833;-76
2022/08/02 09:52:26;;;;;;;4.80;2.20;;;;;;;29.87;39.22;99635.59;4995509;28;20467;-76
2022/08/02 09:54:52;;;;;;;3.00;2.33;;;;;;;30.10;38.96;99629.53;5000445;28;20491;-77
2022/08/02 09:57:27;;;;;;;4.00;1.53;;;;;;;30.20;37.99;99627.13;4999822;28;21130;-76
2022/08/02 09:59:55;;;;;;;2.50;1.83;;;;;;;30.03;37.64;99623.38;4999519;28;20235;-76
2022/08/02 10:02:20;;;;;;;5.10;2.33;;;;;;;29.76;38.26;99630.94;4998581;28;20451;-76
2022/08/02 10:04:46;;;;;;;2.07;1.80;;;;;;;29.60;38.78;99629.56;5000591;28;20971;-77
2022/08/02 10:07:12;;;;;;;2.00;1.77;;;;;;;29.45;39.48;99632.59;4999303;28;20236;-76
2022/08/02 10:09:38;;;;;;;2.77;1.87;;;;;;;29.38;39.57;99633.69;5000493;28;20531;-76
2022/08/02 10:12:04;;;;;;;1.80;1.70;;;;;;;29.63;39.28;99629.13;4988254;28;20212;-76
2022/08/02 10:14:33;;;;;;;5.60;1.87;;;;;;;29.81;38.58;99617.53;4981614;28;20311;-77
2022/08/02 10:16:59;;;;;;;3.53;2.33;;;;;;;29.84;38.13;99621.66;4998963;28;20902;-76
2022/08/02 10:19:25;;;;;;;2.83;1.90;;;;;;;29.81;38.20;99616.69;4999248;28;21038;-76
2022/08/02 10:22:03;;;;;;;3.03;2.50;;;;;;;29.77;38.33;99619.03;4999450;28;20702;-76
2022/08/02 10:24:30;;;;;;;2.60;2.40;;;;;;;29.92;38.63;99615.97;4997329;28;20467;-77
2022/08/02 10:26:58;;;;;;;2.20;2.00;;;;;;;30.21;38.34;99604.38;4998826;28;20531;-77
2022/08/02 10:29:29;;;;;;;2.60;1.93;;;;;;;30.52;37.91;99613.44;5000267;28;20487;-76
2022/08/02 10:32:03;;;;;;;3.23;2.00;;;;;;;30.57;37.56;99599.19;4996716;28;20463;-77
2022/08/02 10:34:36;;;;;;;4.10;2.27;;;;;;;30.41;37.53;99600.66;4996538;28;20584;-76
2022/08/02 10:37:05;;;;;;;2.90;2.13;;;;;;;30.62;37.75;99600.19;4998122;28;20832;-76
2022/08/02 10:39:41;;;;;;;3.57;2.23;;;;;;;30.82;36.93;99594.50;5016655;28;21026;-76
2022/08/02 10:42:07;;;;;;;3.53;2.10;;;;;;;30.89;36.98;99586.25;4996209;28;20470;-77
2022/08/02 10:44:34;;;;;;;2.30;2.10;;;;;;;31.07;36.15;99588.91;4997674;28;20947;-77
2022/08/02 10:47:23;;;;;;;3.00;2.03;;;;;;;31.35;35.79;99584.72;4997468;28;20571;-77
2022/08/02 10:49:56;;;;;;;5.80;1.70;;;;;;;31.30;35.62;99582.72;4998340;28;20558;-76
2022/08/02 10:52:24;;;;;;;2.73;2.53;;;;;;;31.08;35.56;99585.16;4998474;28;20447;-76
2022/08/02 10:54:56;;;;;;;6.30;1.77;;;;;;;31.22;34.95;99580.34;4999650;28;20471;-77
2022/08/02 10:57:25;;;;;;;2.07;1.77;;;;;;;31.31;35.18;99586.25;4997267;28;20468;-77
2022/08/02 10:59:55;;;;;;;1.70;1.60;;;;;;;31.33;34.82;99576.00;4996904;28;20987;-77
2022/08/02 11:02:42;;;;;;;3.83;1.80;;;;;;;31.13;35.34;99576.31;4999367;28;20474;-77
2022/08/02 11:05:13;;;;;;;3.50;2.03;;;;;;;30.99;35.43;99585.72;4997668;28;20759;-77
2022/08/02 11:07:43;;;;;;;2.00;1.90;;;;;;;30.95;35.30;99579.94;4999691;28;20861;-77
2022/08/02 11:10:37;;;;;;;2.07;1.87;;;;;;;30.92;34.60;99577.69;4999051;28;20503;-77
2022/08/02 11:13:09;;;;;;;2.13;1.80;;;;;;;30.78;33.89;99576.19;5002125;28;20709;-76
2022/08/02 11:15:52;;;;;;;1.67;1.57;;;;;;;30.14;35.09;99581.97;5003000;28;20471;-77
2022/08/02 11:18:19;;;;;;;2.77;1.87;;;;;;;30.24;34.87;99576.03;5001628;28;20510;-77
2022/08/02 11:20:44;;;;;;;1.70;1.60;;;;;;;30.38;34.50;99572.13;5000613;28;21004;-77
2022/08/02 11:23:33;;;;;;;1.70;1.60;;;;;;;30.39;33.60;99571.06;5000171;28;20455;-77
2022/08/02 11:25:59;;;;;;;2.17;1.67;;;;;;;30.52;33.35;99569.25;5002634;28;20758;-77
2022/08/02 11:28:25;;;;;;;2.23;1.77;;;;;;;30.53;32.89;99570.91;5001098;28;20815;-77
2022/08/02 11:30:59;;;;;;;2.10;1.53;;;;;;;30.56;32.89;99565.84;4994689;28;20240;-77
2022/08/02 11:33:32;;;;;;;1.90;1.53;;;;;;;30.54;32.92;99572.53;4999800;28;20939;-77
2022/08/02 11:36:04;;;;;;;3.43;1.77;;;;;;;30.35;33.50;99569.88;5003341;28;20471;-77
2022/08/02 11:38:29;;;;;;;1.90;1.50;;;;;;;30.20;33.65;99559.41;5002985;28;20999;-77
2022/08/02 11:40:55;;;;;;;1.83;1.73;;;;;;;30.13;34.12;99565.94;5001464;28;20674;-77
2022/08/02 11:43:23;;;;;;;2.10;1.90;;;;;;;30.23;34.30;99566.28;5000147;28;20591;-77